Time;durP1;ratioP1;P1;durP2;ratioP2;P2;SDS_P1;SDS_P2;PMS_P1;PMS_P2;Temp;Humidity;BMP_temperature;BMP_pressure;BME280_temperature;BME280_humidity;BME280_pressure;Samples;Min_cycle;Max_cycle;Signal;HPM_P1;HPM_P2
2022/01/16 00:00:26;;;;;;;225.28;81.08;;;;;;;-5.06;68.00;98092.53;1778255;80;25818;-83
2022/01/16 00:05:23;;;;;;;250.45;88.75;;;;;;;-5.12;68.08;98072.73;1778265;80;27495;-83
2022/01/16 00:07:50;;;;;;;289.10;91.15;;;;;;;-5.12;68.13;98065.30;1774776;80;25881;-82
2022/01/16 00:10:18;;;;;;;308.70;88.33;;;;;;;-5.12;68.14;98087.69;1769241;80;25822;-82
2022/01/16 00:12:49;;;;;;;231.93;69.22;;;;;;;-5.14;68.08;98093.51;1747362;81;26454;-82
2022/01/16 00:15:20;;;;;;;170.50;57.20;;;;;;;-5.18;68.07;98083.64;1747688;82;26037;-82
2022/01/16 00:17:54;;;;;;;188.75;66.85;;;;;;;-5.21;68.06;98066.75;1714294;83;28202;-83
2022/01/16 00:20:16;;;;;;;197.25;64.07;;;;;;;-5.22;68.13;98069.47;1713195;82;25680;-82
2022/01/16 00:22:45;;;;;;;219.65;67.42;;;;;;;-5.25;68.19;98064.39;1714230;83;25760;-83
2022/01/16 00:25:11;;;;;;;218.07;70.60;;;;;;;-5.27;68.21;98051.33;1714247;83;25816;-83
2022/01/16 00:27:38;;;;;;;192.47;67.17;;;;;;;-5.28;68.21;98052.73;1714214;83;25693;-82
2022/01/16 00:30:06;;;;;;;170.05;62.27;;;;;;;-5.30;68.13;98039.67;1713994;83;27427;-82
2022/01/16 00:32:33;;;;;;;175.22;64.07;;;;;;;-5.33;68.11;98033.79;1714153;82;25788;-82
2022/01/16 00:34:59;;;;;;;162.70;63.73;;;;;;;-5.37;68.23;98058.59;1714193;83;26540;-82
2022/01/16 00:37:26;;;;;;;166.85;62.80;;;;;;;-5.40;68.27;98075.41;1714135;83;25738;-82
2022/01/16 00:39:52;;;;;;;182.10;66.77;;;;;;;-5.40;68.29;98071.47;1714016;83;26004;-83
2022/01/16 00:42:19;;;;;;;202.05;69.17;;;;;;;-5.40;68.31;98036.41;1710484;83;27497;-82
2022/01/16 00:44:46;;;;;;;178.62;63.87;;;;;;;-5.44;68.26;98020.00;1739366;81;25750;-81
2022/01/16 00:47:12;;;;;;;169.47;59.33;;;;;;;-5.46;68.35;98033.72;1706400;83;25714;-82
2022/01/16 00:49:41;;;;;;;157.67;56.58;;;;;;;-5.45;68.43;98063.88;1706346;82;26292;-82
2022/01/16 00:52:09;;;;;;;145.55;52.95;;;;;;;-5.45;68.44;98054.67;1739467;81;25755;-82
2022/01/16 00:54:37;;;;;;;140.50;49.40;;;;;;;-5.47;68.43;98074.97;1739423;82;27645;-82
2022/01/16 00:57:05;;;;;;;148.50;49.63;;;;;;;-5.47;68.42;98071.02;1739300;82;25688;-82
2022/01/16 00:59:32;;;;;;;128.78;47.45;;;;;;;-5.53;68.46;98052.97;1739488;82;25692;-81
2022/01/16 01:02:00;;;;;;;129.80;48.60;;;;;;;-5.54;68.50;98051.75;1706343;84;25780;-82
2022/01/16 01:04:27;;;;;;;121.57;45.60;;;;;;;-5.54;68.56;98035.97;1706103;83;25726;-82
2022/01/16 01:06:55;;;;;;;134.78;46.33;;;;;;;-5.54;68.50;98058.33;1739440;82;27246;-82
2022/01/16 01:09:22;;;;;;;127.50;47.50;;;;;;;-5.56;68.57;98067.66;1739295;82;25290;-82
2022/01/16 01:11:50;;;;;;;129.93;46.68;;;;;;;-5.55;68.49;98095.63;1739474;82;25721;-82
2022/01/16 01:14:40;;;;;;;124.42;44.20;;;;;;;-5.55;68.51;98086.42;1706316;84;25823;-82
2022/01/16 01:17:01;;;;;;;123.07;44.48;;;;;;;-5.57;68.50;98038.34;1703848;84;25678;-82
2022/01/16 01:19:33;;;;;;;116.62;43.13;;;;;;;-5.59;68.49;98062.58;1705701;83;28257;-82
2022/01/16 01:21:57;;;;;;;107.97;40.10;;;;;;;-5.62;68.55;98073.28;1705729;83;25769;-82
2022/01/16 01:24:23;;;;;;;116.75;44.40;;;;;;;-5.66;68.56;98061.25;1706395;83;25717;-82
2022/01/16 01:27:01;;;;;;;135.22;48.20;;;;;;;-5.70;68.57;98068.98;1706430;83;26620;-82
2022/01/16 01:29:21;;;;;;;161.92;56.73;;;;;;;-5.75;68.64;98057.88;1705046;83;26145;-81
2022/01/16 01:31:52;;;;;;;161.85;56.37;;;;;;;-5.76;68.72;98083.80;1706345;82;27386;-82
2022/01/16 01:34:18;;;;;;;179.78;56.90;;;;;;;-5.76;68.74;98026.42;1706259;83;25749;-82
2022/01/16 01:36:48;;;;;;;192.45;64.05;;;;;;;-5.81;68.68;97938.64;1739516;81;25735;-82
2022/01/16 01:39:13;;;;;;;182.30;59.88;;;;;;;-5.86;68.61;97966.53;1739243;81;25704;-82
2022/01/16 01:41:39;;;;;;;161.00;57.40;;;;;;;-5.89;68.73;97961.48;1706285;83;25686;-82
2022/01/16 01:52:21;;;;;;;109.45;42.78;;;;;;;-5.93;68.79;97962.64;1706365;82;25831;-81
2022/01/16 01:54:47;;;;;;;107.15;41.70;;;;;;;-5.92;68.79;97989.77;1739330;81;25334;-81
2022/01/16 01:57:14;;;;;;;126.27;46.00;;;;;;;-5.92;68.77;97975.31;1706382;82;28399;-81
2022/01/16 01:59:41;;;;;;;115.17;43.40;;;;;;;-5.95;68.80;97964.98;1706252;84;25805;-82
2022/01/16 02:02:08;;;;;;;112.00;43.58;;;;;;;-5.97;68.88;97973.43;1739391;82;25257;-82
2022/01/16 02:04:34;;;;;;;101.85;40.52;;;;;;;-6.00;68.86;97974.45;1739226;81;25756;-83
2022/01/16 02:07:01;;;;;;;103.32;41.80;;;;;;;-6.00;68.95;97968.36;1739412;81;25720;-82
2022/01/16 02:09:28;;;;;;;110.00;42.98;;;;;;;-6.01;69.00;97931.18;1739490;81;27342;-82
2022/01/16 02:11:54;;;;;;;99.03;39.05;;;;;;;-6.02;69.01;97937.38;1706263;84;25872;-82
2022/01/16 02:14:45;;;;;;;113.77;42.43;;;;;;;-6.00;69.02;97953.91;1710644;81;25814;-81
2022/01/16 02:29:12;;;;;;;98.83;40.13;;;;;;;-6.01;69.16;97966.20;1736040;82;25800;-82
2022/01/16 02:33:24;;;;;;;130.03;45.98;;;;;;;-6.19;69.19;97978.70;1735891;82;25787;-83
2022/01/16 02:35:45;;;;;;;119.35;44.30;;;;;;;-6.20;69.33;97982.27;1732785;82;27328;-83
2022/01/16 02:38:11;;;;;;;109.17;39.48;;;;;;;-6.17;69.39;97996.16;1732839;82;25769;-83
2022/01/16 02:40:41;;;;;;;90.90;33.92;;;;;;;-6.16;69.47;97999.17;1739424;82;25846;-84
2022/01/16 02:43:06;;;;;;;84.32;32.63;;;;;;;-6.17;69.53;97989.59;1739105;81;25749;-83
2022/01/16 02:45:36;;;;;;;70.52;29.45;;;;;;;-6.15;69.52;97978.49;1706425;84;25749;-83
2022/01/16 02:48:06;;;;;;;67.55;28.73;;;;;;;-6.20;69.41;97976.17;1706318;83;27408;-83
2022/01/16 02:50:35;;;;;;;75.27;29.07;;;;;;;-6.22;69.46;97969.69;1706526;84;25825;-83
2022/01/16 02:53:08;;;;;;;70.95;28.07;;;;;;;-6.21;69.54;97977.95;1706360;82;25826;-83
2022/01/16 02:55:31;;;;;;;85.28;32.10;;;;;;;-6.20;69.51;97970.45;1705647;83;26471;-83
2022/01/16 02:57:58;;;;;;;81.28;30.00;;;;;;;-6.20;69.48;97957.31;1706518;83;25690;-84
2022/01/16 03:00:25;;;;;;;83.03;32.30;;;;;;;-6.16;69.51;97972.42;1706406;84;27343;-83
2022/01/16 03:02:52;;;;;;;74.67;30.72;;;;;;;-6.16;69.44;97971.11;1739391;82;25768;-83
2022/01/16 03:05:19;;;;;;;76.60;28.62;;;;;;;-6.14;69.45;97972.30;1739405;82;25760;-83
2022/01/16 03:07:46;;;;;;;75.67;27.67;;;;;;;-6.15;69.49;97974.55;1739479;81;26478;-84
2022/01/16 03:12:46;;;;;;;71.67;26.90;;;;;;;-6.31;69.56;97965.01;1706490;84;27521;-83
2022/01/16 03:15:15;;;;;;;62.85;26.37;;;;;;;-6.30;69.67;97958.81;1705984;83;26326;-83
2022/01/16 03:21:53;;;;;;;67.12;27.27;;;;;;;-6.28;69.73;97950.84;1739145;81;25656;-83
2022/01/16 03:23:04;;;;;;;71.40;26.95;;;;;;;-6.27;69.84;97949.88;1706404;83;25761;-83
2022/01/16 03:25:31;;;;;;;60.83;25.12;;;;;;;-6.31;69.81;97939.20;1706342;84;28118;-84
2022/01/16 03:27:57;;;;;;;59.20;24.25;;;;;;;-6.36;69.91;97942.56;1708283;82;25857;-84
2022/01/16 03:30:24;;;;;;;60.67;24.12;;;;;;;-6.46;69.98;97939.66;1739470;81;25700;-83
2022/01/16 03:32:51;;;;;;;60.63;25.30;;;;;;;-6.50;70.07;97938.15;1706285;83;25742;-83
2022/01/16 03:35:17;;;;;;;58.98;21.87;;;;;;;-6.50;70.20;97931.59;1706329;83;25709;-83
2022/01/16 03:37:44;;;;;;;53.95;21.17;;;;;;;-6.49;70.29;97924.08;1739425;82;27597;-83
2022/01/16 03:40:12;;;;;;;53.02;20.45;;;;;;;-6.49;70.34;97931.12;1739336;82;25804;-83
2022/01/16 03:42:40;;;;;;;54.45;23.22;;;;;;;-6.50;70.37;97928.95;1706202;82;25281;-84
2022/01/16 03:45:08;;;;;;;56.20;21.82;;;;;;;-6.48;70.42;97927.09;1706338;84;26036;-83
2022/01/16 03:47:35;;;;;;;56.10;21.12;;;;;;;-6.44;70.43;97919.87;1706245;83;25641;-83
2022/01/16 03:50:04;;;;;;;57.75;21.97;;;;;;;-6.42;70.42;97918.85;1739472;81;27444;-83
2022/01/16 03:52:31;;;;;;;52.67;19.67;;;;;;;-6.39;70.43;97920.42;1706214;84;25832;-83
2022/01/16 03:54:57;;;;;;;50.55;19.75;;;;;;;-6.36;70.41;97904.48;1706298;84;25778;-84
2022/01/16 03:57:24;;;;;;;45.65;17.67;;;;;;;-6.33;70.35;97911.70;1706322;82;26441;-83
2022/01/16 03:59:51;;;;;;;45.85;17.65;;;;;;;-6.31;70.36;97908.52;1739554;82;25661;-83
2022/01/16 04:02:18;;;;;;;43.45;18.70;;;;;;;-6.33;70.33;97906.45;1739486;81;27336;-83
2022/01/16 04:04:44;;;;;;;47.90;17.52;;;;;;;-6.35;70.40;97909.64;1706350;83;25782;-83
2022/01/16 04:07:16;;;;;;;45.00;17.23;;;;;;;-6.34;70.46;97912.64;1706465;82;25729;-83
2022/01/16 04:09:40;;;;;;;51.98;18.57;;;;;;;-6.28;70.50;97903.55;1745825;81;25757;-84
2022/01/16 04:12:09;;;;;;;48.63;18.57;;;;;;;-6.24;70.54;97887.48;1735815;81;25677;-83
2022/01/16 04:17:22;;;;;;;38.70;16.60;;;;;;;-6.22;70.43;97900.06;1769717;80;25735;-83
2022/01/16 04:19:51;;;;;;;43.23;17.02;;;;;;;-6.26;70.47;97882.78;1769859;81;25797;-83
2022/01/16 04:22:18;;;;;;;45.80;17.45;;;;;;;-6.27;70.48;97885.50;1770099;79;25823;-84
2022/01/16 04:24:45;;;;;;;46.25;17.95;;;;;;;-6.27;70.48;97881.09;1770141;81;26207;-84
2022/01/16 04:27:13;;;;;;;45.25;18.82;;;;;;;-6.28;70.49;97880.72;1770125;80;27370;-83
2022/01/16 04:29:42;;;;;;;46.88;17.50;;;;;;;-6.26;70.48;97881.94;1769994;80;26331;-84
2022/01/16 04:32:10;;;;;;;38.50;16.87;;;;;;;-6.25;70.47;97886.26;1735758;81;25702;-84
2022/01/16 04:34:36;;;;;;;42.23;15.55;;;;;;;-6.28;70.46;97884.66;1735884;81;26249;-83
2022/01/16 04:37:04;;;;;;;42.58;16.48;;;;;;;-6.31;70.44;97876.99;1721497;82;25808;-83
2022/01/16 04:39:33;;;;;;;44.27;16.87;;;;;;;-6.28;70.47;97882.03;1706389;84;27435;-84
2022/01/16 04:44:45;;;;;;;36.33;14.78;;;;;;;-6.22;70.43;97882.98;1739257;82;26294;-83
2022/01/16 04:47:12;;;;;;;40.75;14.23;;;;;;;-6.20;70.38;97877.16;1706413;83;26475;-84
2022/01/16 04:49:38;;;;;;;36.20;13.95;;;;;;;-6.17;70.38;97876.60;1739496;81;25739;-83
2022/01/16 04:52:05;;;;;;;29.05;12.70;;;;;;;-6.15;70.36;97874.22;1706464;84;28074;-84
2022/01/16 04:54:32;;;;;;;23.00;10.28;;;;;;;-6.19;70.38;97874.91;1739474;82;25640;-84
2022/01/16 04:56:59;;;;;;;29.70;13.13;;;;;;;-6.24;70.41;97870.88;1706400;83;25761;-84
2022/01/16 04:59:25;;;;;;;33.00;12.43;;;;;;;-6.25;70.44;97872.66;1739524;81;25738;-83
2022/01/16 05:01:52;;;;;;;34.03;12.00;;;;;;;-6.28;70.47;97866.27;1706400;83;25714;-84
2022/01/16 05:04:19;;;;;;;38.50;14.07;;;;;;;-6.26;70.50;97864.86;1739577;81;27355;-83
2022/01/16 05:06:45;;;;;;;24.77;11.53;;;;;;;-6.24;70.51;97858.58;1739406;81;25727;-83
2022/01/16 05:09:12;;;;;;;37.98;14.00;;;;;;;-6.23;70.46;97852.86;1706413;83;25757;-83
2022/01/16 05:11:39;;;;;;;31.60;13.30;;;;;;;-6.21;70.46;97860.17;1739530;81;25768;-84
2022/01/16 05:16:35;;;;;;;29.70;11.80;;;;;;;-6.23;70.38;97858.95;1706435;83;27370;-83
2022/01/16 05:19:10;;;;;;;33.95;13.30;;;;;;;-6.23;70.40;97855.48;1706024;83;25860;-83
2022/01/16 05:21:38;;;;;;;31.07;12.15;;;;;;;-6.32;70.30;97855.60;1706434;84;25772;-84
2022/01/16 05:24:12;;;;;;;29.48;11.97;;;;;;;-6.37;70.42;97855.50;1739495;81;25858;-83
2022/01/16 05:26:41;;;;;;;28.23;11.73;;;;;;;-6.38;70.45;97852.03;1737392;82;25823;-84
2022/01/16 05:29:12;;;;;;;28.15;11.57;;;;;;;-6.37;70.51;97847.62;1706339;82;28245;-83
2022/01/16 05:31:48;;;;;;;27.85;11.53;;;;;;;-6.38;70.53;97842.83;1739279;81;26123;-82
2022/01/16 05:34:14;;;;;;;33.45;12.40;;;;;;;-6.37;70.52;97844.52;1737811;82;25719;-82
2022/01/16 05:36:40;;;;;;;30.08;11.65;;;;;;;-6.41;70.49;97835.17;1739399;82;25853;-82
2022/01/16 05:39:07;;;;;;;34.23;11.80;;;;;;;-6.39;70.59;97845.08;1706424;84;26641;-82
2022/01/16 05:41:33;;;;;;;36.45;12.35;;;;;;;-6.40;70.58;97830.77;1739483;82;28097;-82
2022/01/16 05:44:00;;;;;;;32.10;13.72;;;;;;;-6.44;70.61;97827.47;1706070;82;25710;-82
2022/01/16 05:46:26;;;;;;;33.20;15.20;;;;;;;-6.45;70.69;97837.61;1739343;82;25743;-82
2022/01/16 05:48:53;;;;;;;42.75;16.77;;;;;;;-6.46;70.75;97825.41;1706382;84;25979;-83
2022/01/16 05:51:20;;;;;;;41.53;18.45;;;;;;;-6.49;70.73;97827.38;1739547;82;25725;-82
2022/01/16 05:53:48;;;;;;;42.35;19.52;;;;;;;-6.50;70.84;97834.41;1739501;82;27417;-82
2022/01/16 05:56:14;;;;;;;37.33;17.35;;;;;;;-6.51;70.85;97830.09;1739373;81;25668;-82
2022/01/16 05:58:41;;;;;;;42.88;17.98;;;;;;;-6.50;70.88;97831.78;1706427;84;25790;-82
2022/01/16 06:01:07;;;;;;;35.15;16.10;;;;;;;-6.48;70.88;97829.91;1739421;82;26455;-82
2022/01/16 06:03:34;;;;;;;37.33;16.02;;;;;;;-6.44;70.84;97825.31;1706130;82;25639;-82
2022/01/16 06:06:01;;;;;;;38.83;16.40;;;;;;;-6.41;70.76;97824.66;1739440;81;27357;-82
2022/01/16 06:08:28;;;;;;;41.85;16.70;;;;;;;-6.36;70.70;97821.73;1706284;84;25809;-82
2022/01/16 06:10:54;;;;;;;41.68;16.05;;;;;;;-6.33;70.62;97832.89;1739330;81;25835;-82
2022/01/16 06:13:21;;;;;;;36.85;16.55;;;;;;;-6.30;70.58;97830.08;1706300;84;26125;-82
2022/01/16 06:15:48;;;;;;;39.40;15.85;;;;;;;-6.29;70.53;97831.77;1739469;82;26386;-82
2022/01/16 06:18:14;;;;;;;39.48;15.95;;;;;;;-6.31;70.45;97833.64;1706340;84;27352;-82
2022/01/16 06:20:42;;;;;;;42.20;15.40;;;;;;;-6.37;70.42;97835.33;1739111;82;26299;-82
2022/01/16 06:23:09;;;;;;;34.48;15.78;;;;;;;-6.41;70.47;97833.02;1706087;83;25826;-82
2022/01/16 06:25:36;;;;;;;35.23;16.45;;;;;;;-6.47;70.46;97829.44;1705812;83;25774;-82
2022/01/16 06:28:03;;;;;;;37.20;15.32;;;;;;;-6.48;70.53;97820.72;1706375;82;25986;-82
2022/01/16 06:30:29;;;;;;;35.28;15.80;;;;;;;-6.49;70.55;97821.66;1739282;82;28210;-83
2022/01/16 06:32:56;;;;;;;35.78;16.17;;;;;;;-6.47;70.56;97818.47;1706226;83;25734;-83
2022/01/16 06:35:23;;;;;;;38.80;17.42;;;;;;;-6.42;70.52;97820.81;1739154;81;25703;-84
2022/01/16 06:37:49;;;;;;;42.78;18.05;;;;;;;-6.38;70.47;97810.47;1706376;82;26453;-83
2022/01/16 06:40:16;;;;;;;42.60;18.15;;;;;;;-6.36;70.49;97806.81;1749440;80;25758;-83
2022/01/16 06:42:43;;;;;;;41.58;17.75;;;;;;;-6.37;70.44;97803.81;1769818;81;27444;-83
2022/01/16 06:45:11;;;;;;;42.20;17.67;;;;;;;-6.37;70.47;97806.44;1769579;80;25726;-84
2022/01/16 06:47:37;;;;;;;38.50;18.45;;;;;;;-6.39;70.46;97803.05;1769977;81;25721;-83
2022/01/16 06:50:06;;;;;;;42.33;17.92;;;;;;;-6.37;70.49;97797.70;1769910;80;25684;-83
2022/01/16 06:52:33;;;;;;;43.98;18.95;;;;;;;-6.34;70.48;97800.15;1769862;81;25676;-83
2022/01/16 06:54:59;;;;;;;48.33;20.97;;;;;;;-6.32;70.47;97807.00;1769877;81;27435;-83
2022/01/16 06:57:26;;;;;;;45.33;22.05;;;;;;;-6.30;70.43;97807.75;1769891;80;25957;-84
2022/01/16 06:59:52;;;;;;;46.30;20.92;;;;;;;-6.29;70.46;97804.19;1769935;81;25795;-83
2022/01/16 07:02:19;;;;;;;51.20;22.40;;;;;;;-6.35;70.35;97798.46;1769903;81;25837;-83
2022/01/16 07:04:46;;;;;;;57.62;24.70;;;;;;;-6.39;70.46;97809.62;1770049;80;26278;-83
2022/01/16 07:07:13;;;;;;;60.23;24.57;;;;;;;-6.39;70.52;97805.69;1735681;82;26979;-84
2022/01/16 07:09:40;;;;;;;63.50;26.00;;;;;;;-6.38;70.55;97806.53;1735565;82;25678;-84
2022/01/16 07:12:08;;;;;;;74.77;29.30;;;;;;;-6.43;70.58;97802.90;1735713;81;25821;-83
2022/01/16 07:14:34;;;;;;;63.92;29.27;;;;;;;-6.46;70.70;97800.45;1735637;82;26495;-83
2022/01/16 07:17:01;;;;;;;75.70;32.78;;;;;;;-6.44;70.81;97807.77;1735655;82;25710;-83
2022/01/16 07:19:28;;;;;;;67.60;32.23;;;;;;;-6.45;70.80;97794.73;1735666;81;27393;-84
2022/01/16 07:21:54;;;;;;;83.40;33.73;;;;;;;-6.45;70.83;97789.48;1735637;82;25681;-83
2022/01/16 07:24:21;;;;;;;65.12;30.02;;;;;;;-6.44;70.85;97781.51;1770024;79;25723;-83
2022/01/16 07:26:48;;;;;;;69.95;31.45;;;;;;;-6.37;70.96;97788.52;1770034;80;25758;-83
2022/01/16 07:29:14;;;;;;;65.55;29.37;;;;;;;-6.35;71.01;97778.29;1770039;80;25732;-83
2022/01/16 07:31:41;;;;;;;71.05;29.72;;;;;;;-6.30;71.05;97777.54;1769921;81;27239;-85
2022/01/16 07:34:09;;;;;;;55.70;27.55;;;;;;;-6.24;71.09;97779.75;1770046;81;25722;-86
2022/01/16 07:36:38;;;;;;;61.30;28.17;;;;;;;-6.14;71.20;97773.43;1769814;80;25229;-84
2022/01/16 07:39:04;;;;;;;61.30;28.38;;;;;;;-6.04;71.28;97778.48;1770159;81;26344;-86
2022/01/16 07:41:31;;;;;;;75.35;31.48;;;;;;;-5.96;71.30;97776.66;1770022;80;26234;-84
2022/01/16 07:43:58;;;;;;;84.17;37.78;;;;;;;-5.86;71.23;97776.39;1770310;80;27361;-85
2022/01/16 07:46:24;;;;;;;83.50;37.15;;;;;;;-5.77;71.29;97778.41;1778249;80;26454;-86
2022/01/16 07:48:51;;;;;;;79.15;34.15;;;;;;;-5.71;71.30;97776.70;1778144;80;25727;-86
2022/01/16 07:51:17;;;;;;;70.32;33.08;;;;;;;-5.62;71.30;97769.50;1778268;80;25687;-85
2022/01/16 07:53:44;;;;;;;67.20;31.77;;;;;;;-5.53;71.31;97764.93;1778296;80;25681;-87
2022/01/16 07:56:11;;;;;;;72.82;34.83;;;;;;;-5.40;71.32;97771.52;1778300;80;27423;-87
2022/01/16 07:58:37;;;;;;;76.12;35.83;;;;;;;-5.28;71.28;97769.84;1778091;80;25834;-86
2022/01/16 08:01:05;;;;;;;74.32;33.48;;;;;;;-5.19;71.24;97766.11;1778233;80;25723;-86
2022/01/16 08:03:31;;;;;;;77.78;34.60;;;;;;;-5.05;71.25;97769.58;1778196;79;25733;-86
2022/01/16 08:05:58;;;;;;;79.72;33.23;;;;;;;-4.92;71.07;97764.67;1778193;80;25762;-87
2022/01/16 08:08:25;;;;;;;74.03;31.48;;;;;;;-4.79;70.96;97757.61;1778201;80;28121;-87
2022/01/16 08:10:51;;;;;;;73.65;32.10;;;;;;;-4.61;70.93;97768.65;1778201;80;25727;-86
2022/01/16 08:13:18;;;;;;;84.75;35.85;;;;;;;-4.46;70.90;97764.90;1778247;80;25272;-87
2022/01/16 08:15:44;;;;;;;77.53;29.55;;;;;;;-4.30;70.93;97751.95;1778253;79;25878;-89
2022/01/16 08:18:11;;;;;;;68.35;31.60;;;;;;;-4.16;70.83;97748.68;1778364;80;25664;-87
2022/01/16 08:20:38;;;;;;;69.27;28.25;;;;;;;-4.02;70.81;97748.52;1777808;80;27428;-87
2022/01/16 08:23:04;;;;;;;63.65;28.95;;;;;;;-3.87;70.73;97748.34;1778123;80;25776;-86
2022/01/16 08:25:31;;;;;;;70.42;28.62;;;;;;;-3.73;70.65;97736.26;1778292;80;25794;-86
2022/01/16 08:27:58;;;;;;;81.78;32.60;;;;;;;-3.63;70.43;97738.59;1778250;80;25762;-86
2022/01/16 08:30:24;;;;;;;84.20;34.40;;;;;;;-3.52;70.28;97739.95;1778263;80;25794;-87
2022/01/16 08:32:52;;;;;;;99.05;44.55;;;;;;;-3.40;70.21;97750.05;1778168;80;28683;-86
2022/01/16 08:35:20;;;;;;;105.05;41.63;;;;;;;-3.28;70.09;97733.28;1743519;81;25784;-87
2022/01/16 08:37:47;;;;;;;91.80;38.70;;;;;;;-3.13;69.97;97733.88;1743964;82;25820;-87
2022/01/16 08:40:14;;;;;;;81.28;35.68;;;;;;;-2.97;69.88;97731.73;1743860;81;25747;-86
2022/01/16 08:42:41;;;;;;;77.35;34.43;;;;;;;-2.83;69.72;97718.29;1743745;82;25657;-86
2022/01/16 08:45:09;;;;;;;60.70;29.45;;;;;;;-2.65;69.70;97715.50;1728343;81;27535;-87
2022/01/16 08:47:37;;;;;;;71.50;30.00;;;;;;;-2.48;69.20;97697.46;1769767;81;25788;-87
2022/01/16 08:50:07;;;;;;;71.50;30.40;;;;;;;-2.32;69.21;97692.63;1736018;81;25645;-86
2022/01/16 08:52:33;;;;;;;64.37;29.82;;;;;;;-2.11;69.14;97688.23;1735673;81;26006;-86
2022/01/16 08:55:01;;;;;;;57.80;27.05;;;;;;;-1.82;69.17;97691.97;1763779;81;25699;-86
2022/01/16 08:57:29;;;;;;;60.55;25.08;;;;;;;-1.60;68.94;97676.93;1769890;81;28208;-87
2022/01/16 08:59:55;;;;;;;56.88;26.30;;;;;;;-1.38;68.54;97676.78;1769862;80;26122;-87
2022/01/16 09:02:22;;;;;;;58.73;25.95;;;;;;;-1.23;68.27;97665.38;1735756;81;25670;-87
2022/01/16 09:04:48;;;;;;;64.32;27.98;;;;;;;-1.01;67.98;97661.22;1769824;81;25713;-87
2022/01/16 09:07:16;;;;;;;58.92;26.62;;;;;;;-0.70;67.71;97655.87;1735779;81;25737;-87
2022/01/16 09:09:42;;;;;;;61.77;26.35;;;;;;;-0.37;67.48;97645.78;1763575;80;27437;-87
2022/01/16 09:12:10;;;;;;;59.75;27.73;;;;;;;-0.08;67.29;97640.48;1769837;81;25778;-89
2022/01/16 09:14:37;;;;;;;54.35;25.90;;;;;;;0.27;67.15;97642.55;1769862;81;25743;-89
2022/01/16 09:17:04;;;;;;;46.83;21.15;;;;;;;0.56;66.60;97633.72;1735916;81;25880;-89
2022/01/16 09:19:30;;;;;;;42.03;19.12;;;;;;;0.86;65.59;97630.81;1769897;80;25897;-90
2022/01/16 09:21:57;;;;;;;45.00;19.50;;;;;;;1.20;64.78;97624.95;1735690;81;27586;-91
2022/01/16 09:24:24;;;;;;;47.33;20.20;;;;;;;1.44;63.77;97626.08;1769708;81;25721;-90
2022/01/16 09:26:54;;;;;;;45.95;19.37;;;;;;;1.69;63.21;97617.03;1735663;81;25737;-91
2022/01/16 09:29:19;;;;;;;44.45;20.62;;;;;;;2.02;63.15;97602.20;1735245;81;25879;-91
2022/01/16 09:31:45;;;;;;;38.67;17.60;;;;;;;2.33;61.96;97605.27;1769742;81;25714;-89
2022/01/16 09:34:12;;;;;;;33.80;14.03;;;;;;;2.66;61.62;97594.33;1769991;81;28396;-90
2022/01/16 09:36:38;;;;;;;27.25;11.95;;;;;;;3.05;60.93;97586.22;1769891;81;25997;-89
2022/01/16 09:39:05;;;;;;;23.40;10.45;;;;;;;3.48;60.09;97589.72;1770148;81;25691;-90
2022/01/16 09:41:32;;;;;;;24.15;10.93;;;;;;;3.63;59.00;97586.73;1735271;82;26468;-88
2022/01/16 09:43:58;;;;;;;30.97;14.58;;;;;;;3.78;58.33;97581.10;1769716;81;25300;-88
2022/01/16 09:46:25;;;;;;;27.27;12.30;;;;;;;4.07;58.04;97578.47;1704725;82;27584;-89
2022/01/16 09:48:51;;;;;;;22.37;10.93;;;;;;;4.29;57.24;97574.63;1753052;81;25755;-88
2022/01/16 09:51:18;;;;;;;20.82;10.23;;;;;;;4.49;56.72;97561.73;1706275;82;25675;-88
2022/01/16 09:53:46;;;;;;;24.45;9.80;;;;;;;4.80;56.00;97556.50;1738991;81;44411;-87
2022/01/16 09:56:13;;;;;;;19.27;9.65;;;;;;;5.09;55.30;97555.88;1739231;81;25712;-87
2022/01/16 09:58:41;;;;;;;20.27;10.10;;;;;;;5.34;54.70;97544.56;1738957;81;27610;-88
2022/01/16 10:01:08;;;;;;;21.05;9.95;;;;;;;5.57;54.26;97536.57;1769795;81;25860;-88
2022/01/16 10:03:42;;;;;;;18.70;10.00;;;;;;;5.79;53.69;97539.30;1769946;81;25947;-88
2022/01/16 10:06:20;;;;;;;21.82;11.03;;;;;;;5.99;53.09;97537.00;1768003;81;25849;-87
2022/01/16 10:08:58;;;;;;;21.20;10.28;;;;;;;6.11;52.62;97528.02;1769993;81;25731;-88
2022/01/16 10:11:40;;;;;;;21.93;10.98;;;;;;;6.35;52.66;97525.63;1734731;81;27391;-89
2022/01/16 10:14:23;;;;;;;18.77;9.88;;;;;;;6.54;51.74;97521.58;1745655;81;25896;-86
2022/01/16 10:16:50;;;;;;;21.45;10.03;;;;;;;6.86;51.02;97515.89;1739366;82;26323;-88
2022/01/16 10:19:24;;;;;;;20.08;9.95;;;;;;;7.09;50.08;97509.07;1706341;82;25778;-87
2022/01/16 10:21:52;;;;;;;19.82;9.73;;;;;;;7.22;48.28;97503.88;1739223;81;25734;-86
2022/01/16 10:24:26;;;;;;;22.45;10.78;;;;;;;7.34;48.91;97501.02;1739417;81;27525;-86
2022/01/16 10:27:13;;;;;;;21.42;11.15;;;;;;;7.29;47.10;97500.74;1739496;81;25814;-87
2022/01/16 10:29:51;;;;;;;20.90;11.03;;;;;;;7.15;47.19;97494.88;1739417;82;25826;-86
2022/01/16 10:32:27;;;;;;;20.88;10.68;;;;;;;7.29;47.27;97490.00;1706334;83;25861;-87
2022/01/16 10:35:11;;;;;;;19.85;9.53;;;;;;;7.47;46.75;97482.38;1739480;82;25769;-87
2022/01/16 10:37:41;;;;;;;24.50;10.15;;;;;;;7.62;46.73;97486.84;1724480;82;27429;-86
2022/01/16 10:40:20;;;;;;;22.42;10.30;;;;;;;7.82;45.91;97475.30;1739194;81;25735;-86
2022/01/16 10:42:55;;;;;;;19.23;10.00;;;;;;;8.00;45.05;97465.92;1706282;82;25882;-86
2022/01/16 10:45:29;;;;;;;20.85;10.58;;;;;;;8.21;45.30;97462.69;1707587;83;25906;-86
2022/01/16 10:48:02;;;;;;;22.62;9.30;;;;;;;8.28;44.09;97458.20;1714283;83;25701;-86
2022/01/16 10:50:39;;;;;;;16.00;8.78;;;;;;;8.33;43.44;97441.53;1706667;84;28206;-86
2022/01/16 10:53:12;;;;;;;17.87;9.20;;;;;;;8.49;43.34;97453.31;1706285;84;25780;-85
2022/01/16 10:55:44;;;;;;;17.00;8.28;;;;;;;8.60;43.45;97452.76;1744796;82;25794;-85
2022/01/16 10:58:30;;;;;;;17.92;9.13;;;;;;;8.68;42.25;97449.09;1744823;82;25703;-85
2022/01/16 11:01:04;;;;;;;18.70;8.90;;;;;;;8.90;42.71;97452.52;1744777;82;25716;-85
2022/01/16 11:03:50;;;;;;;21.55;10.55;;;;;;;8.97;41.85;97445.30;1743887;82;28290;-85
2022/01/16 11:06:21;;;;;;;21.35;9.80;;;;;;;9.14;41.34;97429.63;1713995;83;25665;-85
2022/01/16 11:08:59;;;;;;;20.60;9.88;;;;;;;9.20;41.32;97431.50;1706726;84;26317;-86
2022/01/16 11:11:26;;;;;;;19.45;11.38;;;;;;;9.27;40.78;97425.64;1706677;84;25748;-85
2022/01/16 11:13:54;;;;;;;22.52;10.55;;;;;;;9.36;39.63;97421.72;1714441;82;25794;-86
2022/01/16 11:16:23;;;;;;;23.75;11.05;;;;;;;9.35;40.69;97417.36;1706746;84;27619;-86
2022/01/16 11:18:51;;;;;;;16.77;9.65;;;;;;;9.29;40.43;97413.64;1706667;84;25338;-85
2022/01/16 11:21:31;;;;;;;24.57;10.72;;;;;;;9.27;39.75;97410.31;1744492;82;25711;-86
2022/01/16 11:24:00;;;;;;;26.37;12.40;;;;;;;9.46;39.70;97403.81;1742815;82;26354;-86
2022/01/16 11:26:19;;;;;;;24.32;13.03;;;;;;;9.72;39.64;97411.95;1742616;82;25769;-85
2022/01/16 11:28:47;;;;;;;24.65;11.57;;;;;;;9.94;39.44;97397.23;1744841;81;28345;-86
2022/01/16 11:31:15;;;;;;;23.30;12.47;;;;;;;10.22;39.43;97390.30;1744761;82;26203;-87
2022/01/16 11:33:43;;;;;;;27.00;12.93;;;;;;;10.44;38.92;97386.32;1744814;82;25725;-86
2022/01/16 11:36:21;;;;;;;21.17;11.43;;;;;;;10.70;38.61;97385.95;1717640;82;26591;-86
2022/01/16 11:39:00;;;;;;;19.25;10.88;;;;;;;10.83;38.53;97383.20;1744885;81;25676;-86
2022/01/16 11:41:36;;;;;;;22.80;11.45;;;;;;;10.91;37.95;97382.95;1714342;83;28190;-86
2022/01/16 11:44:27;;;;;;;20.62;11.70;;;;;;;11.05;37.59;97383.73;1714157;83;25783;-87
2022/01/16 11:46:58;;;;;;;23.05;11.85;;;;;;;11.10;37.73;97380.70;1714103;82;25772;-85
2022/01/16 11:49:38;;;;;;;20.77;11.75;;;;;;;11.19;37.44;97374.52;1714412;83;26623;-86
2022/01/16 11:52:18;;;;;;;21.87;11.78;;;;;;;11.21;36.96;97369.73;1713843;83;25240;-86
2022/01/16 11:54:50;;;;;;;24.23;11.30;;;;;;;11.18;36.86;97372.86;1714314;83;27364;-85
2022/01/16 11:57:28;;;;;;;22.27;11.48;;;;;;;11.14;36.53;97372.45;1714378;83;25861;-85
2022/01/16 12:00:15;;;;;;;25.15;11.73;;;;;;;11.03;36.17;97369.61;1713898;83;25717;-86